createdAt,value
2022-08-05T00:01:28.427Z,100348.28
2022-08-05T00:03:56.984Z,100295.66
2022-08-05T00:06:32.205Z,100282.56
2022-08-05T00:09:00.730Z,100289.66
2022-08-05T00:11:34.798Z,100323.19
2022-08-05T00:14:13.085Z,100415.03
2022-08-05T00:16:52.077Z,100488.69
2022-08-05T00:19:22.592Z,100479.53
2022-08-05T00:21:49.979Z,100462.44
2022-08-05T00:24:24.133Z,100495.31
2022-08-05T00:26:52.940Z,100546.69
2022-08-05T00:29:22.425Z,100544.72
2022-08-05T00:31:53.300Z,100548.50
2022-08-05T00:34:55.794Z,100534.78
2022-08-05T00:37:22.529Z,100505.41
2022-08-05T00:39:57.939Z,100477.28
2022-08-05T00:42:37.032Z,100488.03
2022-08-05T00:45:08.658Z,100472.13
2022-08-05T00:47:57.104Z,100465.47
2022-08-05T00:50:25.264Z,100462.66
2022-08-05T00:52:55.082Z,100471.00
2022-08-05T00:55:22.276Z,100478.34
2022-08-05T00:57:57.992Z,100493.72
2022-08-05T01:00:26.285Z,100523.13
2022-08-05T01:02:53.060Z,100545.91
2022-08-05T01:05:19.829Z,100531.59
2022-08-05T01:08:40.187Z,100510.31
2022-08-05T01:10:53.996Z,100493.72
2022-08-05T01:13:58.356Z,100509.28
2022-08-05T01:16:40.185Z,100503.44
2022-08-05T01:19:46.331Z,100504.34
2022-08-05T01:22:24.267Z,100483.91
2022-08-05T01:25:39.945Z,100494.78
2022-08-05T01:28:13.835Z,100507.94
2022-08-05T01:30:59.182Z,100495.09
2022-08-05T01:33:35.538Z,100484.03
2022-08-05T01:36:13.068Z,100469.03
2022-08-05T01:38:48.575Z,100472.38
2022-08-05T01:41:21.009Z,100468.88
2022-08-05T01:43:49.970Z,100465.63
2022-08-05T01:46:42.867Z,100469.47
2022-08-05T01:49:23.000Z,100483.91
2022-08-05T01:51:55.103Z,100497.13
2022-08-05T01:54:25.702Z,100495.09
2022-08-05T01:58:12.658Z,100511.84
2022-08-05T01:59:47.288Z,100491.94
2022-08-05T02:02:15.822Z,100492.22
2022-08-05T02:04:46.129Z,100495.56
2022-08-05T02:07:22.035Z,100493.53
2022-08-05T02:09:50.362Z,100502.28
2022-08-05T02:12:32.977Z,100496.41
2022-08-05T02:15:00.343Z,100497.44
2022-08-05T02:18:27.510Z,100495.19
2022-08-05T02:20:27.869Z,100504.75
2022-08-05T02:22:59.701Z,100508.69
2022-08-05T02:25:33.372Z,100516.53
2022-08-05T02:28:08.720Z,100509.63
2022-08-05T02:30:51.764Z,100507.59
2022-08-05T02:33:24.543Z,100519.72
2022-08-05T02:36:09.443Z,100525.81
2022-08-05T02:38:37.737Z,100525.34
2022-08-05T02:41:14.495Z,100531.44
2022-08-05T02:44:02.327Z,100530.94
2022-08-05T02:46:33.977Z,100520.94
2022-08-05T02:49:01.781Z,100524.13
2022-08-05T02:52:04.474Z,100540.91
2022-08-05T02:54:35.082Z,100537.53
2022-08-05T02:57:10.281Z,100543.06
2022-08-05T02:59:55.016Z,100554.72
2022-08-05T03:02:27.442Z,100570.25
2022-08-05T03:04:55.344Z,100578.22
2022-08-05T03:07:27.033Z,100586.00
2022-08-05T03:10:10.443Z,100601.50
2022-08-05T03:12:51.704Z,100589.88
2022-08-05T03:15:19.994Z,100579.25
2022-08-05T03:17:46.610Z,100568.06
2022-08-05T03:20:13.392Z,100555.22
2022-08-05T03:22:44.353Z,100534.16
2022-08-05T03:25:32.859Z,100505.06
2022-08-05T03:28:02.259Z,100509.97
2022-08-05T03:30:33.999Z,100521.78
2022-08-05T03:33:02.854Z,100539.38
2022-08-05T03:35:30.995Z,100540.69
2022-08-05T03:38:01.321Z,100553.22
2022-08-05T03:40:32.263Z,100538.84
2022-08-05T03:43:16.033Z,100555.59
2022-08-05T03:45:57.129Z,100595.47
2022-08-05T03:48:27.482Z,100586.69
2022-08-05T03:52:37.258Z,100549.00
2022-08-05T03:55:34.306Z,100566.06
2022-08-05T03:56:46.511Z,100556.25
2022-08-05T03:59:47.273Z,100526.84
2022-08-05T04:02:38.218Z,100546.66
2022-08-05T04:05:09.919Z,100532.22
2022-08-05T04:07:53.040Z,100519.09
2022-08-05T04:10:27.794Z,100513.19
2022-08-05T04:12:56.059Z,100518.09
2022-08-05T04:15:26.508Z,100511.09
2022-08-05T04:17:57.223Z,100511.28
2022-08-05T04:20:24.244Z,100509.97
2022-08-05T04:22:50.737Z,100513.13
2022-08-05T04:25:17.434Z,100516.69
2022-08-05T04:27:57.368Z,100516.06
2022-08-05T04:30:26.588Z,100507.47
2022-08-05T04:32:53.316Z,100492.44
2022-08-05T04:35:20.176Z,100463.69
2022-08-05T04:38:01.349Z,100455.44
2022-08-05T04:40:36.275Z,100427.88
2022-08-05T04:43:03.593Z,100413.38
2022-08-05T04:45:48.322Z,100404.28
2022-08-05T04:48:18.556Z,100371.91
2022-08-05T04:51:01.844Z,100359.66
2022-08-05T04:53:33.957Z,100387.16
2022-08-05T04:56:33.099Z,100392.03
2022-08-05T04:58:49.395Z,100404.78
2022-08-05T05:01:15.941Z,100413.75
2022-08-05T05:04:02.316Z,100434.84
2022-08-05T05:06:40.409Z,100446.13
2022-08-05T05:09:14.032Z,100450.59
2022-08-05T05:11:54.065Z,100447.97
2022-08-05T05:14:27.855Z,100450.16
2022-08-05T05:16:59.950Z,100452.19
2022-08-05T05:19:36.329Z,100458.28
2022-08-05T05:22:24.472Z,100452.81
2022-08-05T05:24:57.593Z,100450.97
2022-08-05T05:27:41.720Z,100452.81
2022-08-05T05:30:31.482Z,100460.47
2022-08-05T05:33:09.197Z,100462.66
2022-08-05T05:35:47.445Z,100481.53
2022-08-05T05:38:14.598Z,100481.50
2022-08-05T05:40:49.670Z,100497.81
2022-08-05T05:43:54.442Z,100505.34
2022-08-05T05:46:15.972Z,100518.13
2022-08-05T05:48:45.877Z,100523.00
2022-08-05T05:51:20.255Z,100526.28
2022-08-05T05:53:57.226Z,100539.25
2022-08-05T05:56:26.212Z,100540.19
2022-08-05T05:58:58.478Z,100536.00
2022-08-05T06:01:37.995Z,100538.69
2022-08-05T06:04:11.655Z,100553.56
2022-08-05T06:06:41.744Z,100552.44
2022-08-05T06:09:09.272Z,100549.81
2022-08-05T06:11:59.608Z,100558.81
2022-08-05T06:14:29.200Z,100560.69
2022-08-05T06:16:56.849Z,100567.84
2022-08-05T06:19:35.088Z,100573.91
2022-08-05T06:22:06.644Z,100575.34
2022-08-05T06:24:34.926Z,100593.03
2022-08-05T06:27:01.847Z,100592.78
2022-08-05T06:29:46.609Z,100606.44
2022-08-05T06:32:20.876Z,100617.06
2022-08-05T06:34:53.449Z,100621.81
2022-08-05T06:37:55.818Z,100623.09
2022-08-05T06:40:07.606Z,100638.03
2022-08-05T06:42:34.097Z,100635.75
2022-08-05T06:45:00.555Z,100610.66
2022-08-05T06:48:36.566Z,100614.31
2022-08-05T06:50:19.024Z,100614.72
2022-08-05T06:52:58.770Z,100614.41
2022-08-05T06:55:36.514Z,100610.84
2022-08-05T06:58:19.817Z,100606.81
2022-08-05T07:00:50.399Z,100599.16
2022-08-05T07:03:17.108Z,100608.09
2022-08-05T07:05:44.285Z,100602.34
2022-08-05T07:08:13.207Z,100599.19
2022-08-05T07:10:52.909Z,100603.88
2022-08-05T07:13:59.171Z,100596.78
2022-08-05T07:18:00.013Z,100594.06
2022-08-05T07:22:28.559Z,100589.53
2022-08-05T07:25:22.717Z,100583.84
2022-08-05T07:27:57.305Z,100582.63
2022-08-05T07:30:33.430Z,100568.44
2022-08-05T07:33:09.762Z,100567.03
2022-08-05T07:36:02.607Z,100564.03
2022-08-05T07:38:33.532Z,100553.22
2022-08-05T07:42:09.176Z,100548.16
2022-08-05T07:43:56.438Z,100537.78
2022-08-05T07:46:27.449Z,100536.16
2022-08-05T07:49:04.077Z,100527.88
2022-08-05T07:51:37.252Z,100511.16
2022-08-05T07:54:09.781Z,100506.44
2022-08-05T07:57:02.739Z,100493.44
2022-08-05T07:59:38.840Z,100496.66
2022-08-05T08:02:15.809Z,100499.34
2022-08-05T08:04:45.107Z,100488.16
2022-08-05T08:07:12.570Z,100499.59
2022-08-05T08:09:39.103Z,100492.72
2022-08-05T08:12:19.943Z,100494.19
2022-08-05T08:14:52.379Z,100507.13
2022-08-05T08:17:18.867Z,100517.75
2022-08-05T08:20:21.108Z,100517.63
2022-08-05T08:22:37.786Z,100526.00
2022-08-05T08:25:15.743Z,100533.84
2022-08-05T08:27:47.673Z,100545.97
2022-08-05T08:30:28.465Z,100529.38
2022-08-05T08:33:02.614Z,100527.53
2022-08-05T08:35:34.732Z,100540.06
2022-08-05T08:38:07.348Z,100551.69
2022-08-05T08:40:35.259Z,100551.84
2022-08-05T08:45:16.248Z,100550.53
2022-08-05T08:45:54.325Z,100551.78
2022-08-05T08:48:36.116Z,100557.72
2022-08-05T08:52:01.730Z,100547.72
2022-08-05T08:53:55.420Z,100544.34
2022-08-05T08:56:23.553Z,100545.13
2022-08-05T08:58:53.953Z,100544.06
2022-08-05T09:01:20.476Z,100555.09
2022-08-05T09:03:55.803Z,100540.44
2022-08-05T09:06:30.287Z,100552.22
2022-08-05T09:09:02.067Z,100559.69
2022-08-05T09:11:51.111Z,100572.91
2022-08-05T09:14:58.822Z,100575.94
2022-08-05T09:17:08.140Z,100595.56
2022-08-05T09:20:01.897Z,100610.84
2022-08-05T09:22:31.381Z,100605.47
2022-08-05T09:25:13.734Z,100593.31
2022-08-05T09:28:03.900Z,100587.25
2022-08-05T09:30:34.431Z,100584.59
2022-08-05T09:33:05.013Z,100581.59
2022-08-05T09:35:31.860Z,100582.78
2022-08-05T09:38:13.053Z,100584.75
2022-08-05T09:40:51.748Z,100588.59
2022-08-05T09:43:27.528Z,100597.03
2022-08-05T09:46:27.637Z,100597.75
2022-08-05T09:49:07.773Z,100598.19
2022-08-05T09:51:42.290Z,100590.75
2022-08-05T09:54:09.485Z,100590.66
2022-08-05T09:56:38.237Z,100597.50
2022-08-05T09:59:07.698Z,100602.75
2022-08-05T10:01:41.843Z,100605.69
2022-08-05T10:04:16.091Z,100619.44
2022-08-05T10:07:19.925Z,100624.13
2022-08-05T10:10:04.161Z,100618.81
2022-08-05T10:12:50.463Z,100630.50
2022-08-05T10:15:27.846Z,100636.69
2022-08-05T10:18:12.393Z,100639.66
2022-08-05T10:20:40.670Z,100631.78
2022-08-05T10:23:21.748Z,100635.56
2022-08-05T10:25:56.488Z,100643.78
2022-08-05T10:28:29.595Z,100627.84
2022-08-05T10:32:51.033Z,100636.16
2022-08-05T10:33:45.024Z,100634.56
2022-08-05T10:36:19.080Z,100640.03
2022-08-05T10:39:24.036Z,100641.09
2022-08-05T10:42:11.730Z,100657.81
2022-08-05T10:44:39.308Z,100646.09
2022-08-05T10:47:25.968Z,100646.66
2022-08-05T10:50:32.087Z,100655.50
2022-08-05T10:53:00.153Z,100654.59
2022-08-05T10:55:27.254Z,100665.16
2022-08-05T10:58:11.471Z,100654.47
2022-08-05T11:00:42.263Z,100648.19
2022-08-05T11:03:25.532Z,100647.34
2022-08-05T11:06:04.298Z,100634.38
2022-08-05T11:08:37.220Z,100641.75
2022-08-05T11:11:44.267Z,100640.97
2022-08-05T11:14:49.507Z,100647.78
2022-08-05T11:18:00.386Z,100638.53
2022-08-05T11:20:39.097Z,100640.38
2022-08-05T11:24:04.719Z,100631.81
2022-08-05T11:26:35.957Z,100647.50
2022-08-05T11:29:12.924Z,100649.59
2022-08-05T11:31:56.338Z,100644.69
2022-08-05T11:34:37.819Z,100658.63
2022-08-05T11:37:06.304Z,100657.41
2022-08-05T11:40:00.203Z,100661.94
2022-08-05T11:42:37.875Z,100666.47
2022-08-05T11:45:14.189Z,100669.66
2022-08-05T11:47:50.578Z,100681.63
2022-08-05T11:50:21.586Z,100683.34
2022-08-05T11:52:48.996Z,100681.16
2022-08-05T11:55:17.636Z,100685.22
2022-08-05T11:58:10.649Z,100688.59
2022-08-05T12:00:38.115Z,100688.09
2022-08-05T12:03:43.639Z,100714.31
2022-08-05T12:06:25.862Z,100711.78
2022-08-05T12:08:54.413Z,100712.66
2022-08-05T12:11:40.374Z,100718.91
2022-08-05T12:14:10.248Z,100741.34
2022-08-05T12:16:45.148Z,100736.00
2022-08-05T12:20:26.325Z,100743.88
2022-08-05T12:22:01.463Z,100765.88
2022-08-05T12:24:27.956Z,100760.19
2022-08-05T12:26:54.861Z,100750.03
2022-08-05T12:29:23.475Z,100758.44
2022-08-05T12:31:55.500Z,100777.94
2022-08-05T12:34:28.545Z,100784.41
2022-08-05T12:36:59.034Z,100787.19
2022-08-05T12:39:34.300Z,100792.44
2022-08-05T12:42:09.494Z,100800.44
2022-08-05T12:44:41.661Z,100801.28
2022-08-05T12:47:12.423Z,100808.16
2022-08-05T12:50:03.228Z,100815.88
2022-08-05T12:52:41.699Z,100823.72
2022-08-05T12:55:32.508Z,100822.28
2022-08-05T12:58:51.272Z,100825.03
2022-08-05T13:02:00.555Z,100832.13
2022-08-05T13:03:41.447Z,100842.50
2022-08-05T13:06:19.770Z,100840.69
2022-08-05T13:08:51.703Z,100837.16
2022-08-05T13:11:57.945Z,100845.66
2022-08-05T13:14:36.115Z,100834.81
2022-08-05T13:17:16.191Z,100843.63
2022-08-05T13:20:06.885Z,100860.44
2022-08-05T13:22:43.479Z,100864.72
2022-08-05T13:25:19.171Z,100862.53
2022-08-05T13:27:51.653Z,100869.44
2022-08-05T13:30:35.185Z,100867.69
2022-08-05T13:33:05.486Z,100868.13
2022-08-05T13:35:42.594Z,100870.63
2022-08-05T13:38:28.436Z,100872.72
2022-08-05T13:40:58.492Z,100876.16
2022-08-05T13:43:44.094Z,100865.19
2022-08-05T13:46:12.200Z,100870.72
2022-08-05T13:48:57.874Z,100865.44
2022-08-05T13:51:40.352Z,100869.75
2022-08-05T13:54:11.805Z,100865.59
2022-08-05T13:56:39.930Z,100879.47
2022-08-05T13:59:20.326Z,100874.41
2022-08-05T14:01:56.428Z,100875.97
2022-08-05T14:04:41.983Z,100882.94
2022-08-05T14:07:26.439Z,100882.56
2022-08-05T14:09:56.076Z,100888.97
2022-08-05T14:12:32.793Z,100878.63
2022-08-05T14:14:59.671Z,100886.56
2022-08-05T14:17:26.717Z,100894.88
2022-08-05T14:19:59.646Z,100892.88
2022-08-05T14:22:30.460Z,100900.03
2022-08-05T14:25:01.508Z,100900.53
2022-08-05T14:27:28.382Z,100901.31
2022-08-05T14:29:56.415Z,100911.84
2022-08-05T14:32:26.787Z,100912.09
2022-08-05T14:34:54.726Z,100910.81
2022-08-05T14:37:45.444Z,100915.84
2022-08-05T14:40:13.980Z,100925.44
2022-08-05T14:42:43.091Z,100925.63
2022-08-05T14:45:10.190Z,100926.09
2022-08-05T14:48:03.416Z,100927.78
2022-08-05T14:50:23.355Z,100940.53
2022-08-05T14:52:58.313Z,100932.31
2022-08-05T14:55:39.568Z,100932.22
2022-08-05T14:58:11.959Z,100939.13
2022-08-05T15:00:58.430Z,100940.66
2022-08-05T15:03:33.223Z,100938.59
2022-08-05T15:06:07.877Z,100946.25
2022-08-05T15:09:01.123Z,100940.47
2022-08-05T15:11:51.628Z,100939.06
2022-08-05T15:14:33.243Z,100943.50
2022-08-05T15:17:01.531Z,100955.88
2022-08-05T15:19:30.430Z,100958.28
2022-08-05T15:22:00.101Z,100963.09
2022-08-05T15:24:27.933Z,100959.13
2022-08-05T15:26:55.889Z,100963.13
2022-08-05T15:29:23.543Z,100960.16
2022-08-05T15:31:56.373Z,100965.09
2022-08-05T15:34:32.942Z,100969.84
2022-08-05T15:37:06.311Z,100978.16
2022-08-05T15:41:00.102Z,100985.31
2022-08-05T15:42:28.798Z,100990.41
2022-08-05T15:45:14.767Z,100989.94
2022-08-05T15:47:42.852Z,100994.75
2022-08-05T15:50:15.091Z,100976.56
2022-08-05T15:52:53.264Z,100979.34
2022-08-05T15:55:24.574Z,100987.53
2022-08-05T15:57:51.377Z,100983.75
2022-08-05T16:00:26.269Z,100981.72
2022-08-05T16:03:05.023Z,100987.09
2022-08-05T16:05:31.979Z,100988.13
2022-08-05T16:07:58.518Z,100987.09
2022-08-05T16:10:26.975Z,100987.69
2022-08-05T16:12:56.024Z,100983.13
2022-08-05T16:15:23.026Z,100990.03
2022-08-05T16:17:57.844Z,100987.28
2022-08-05T16:20:24.855Z,100987.94
2022-08-05T16:22:51.308Z,100995.44
2022-08-05T16:25:17.874Z,100994.88
2022-08-05T16:28:01.085Z,100993.88
2022-08-05T16:30:31.867Z,100993.06
2022-08-05T16:32:59.408Z,100997.19
2022-08-05T16:35:28.691Z,100996.56
2022-08-05T16:38:16.316Z,100997.41
2022-08-05T16:40:51.692Z,100996.41
2022-08-05T16:43:23.746Z,100999.03
2022-08-05T16:46:03.703Z,100989.19
2022-08-05T16:48:39.042Z,100989.16
2022-08-05T16:51:09.362Z,100997.38
2022-08-05T16:54:05.771Z,100992.50
2022-08-05T16:56:26.171Z,100996.25
2022-08-05T16:59:07.894Z,101006.09
2022-08-05T17:01:54.391Z,101006.97
2022-08-05T17:04:23.915Z,101006.97
2022-08-05T17:06:55.218Z,101003.06
2022-08-05T17:09:23.060Z,101004.16
2022-08-05T17:11:52.360Z,101013.81
2022-08-05T17:14:34.036Z,101009.03
2022-08-05T17:17:04.197Z,101012.72
2022-08-05T17:19:31.208Z,101022.25
2022-08-05T17:21:58.368Z,101013.81
2022-08-05T17:24:33.928Z,101017.22
2022-08-05T17:27:05.592Z,101014.00
2022-08-05T17:29:39.766Z,101012.59
2022-08-05T17:32:17.219Z,101021.72
2022-08-05T17:34:53.137Z,101025.66
2022-08-05T17:37:39.698Z,101028.66
2022-08-05T17:40:10.867Z,101023.09
2022-08-05T17:42:46.389Z,101028.56
2022-08-05T17:45:20.298Z,101028.78
2022-08-05T17:47:51.543Z,101030.78
2022-08-05T17:50:27.668Z,101029.88
2022-08-05T17:52:58.723Z,101028.97
2022-08-05T17:55:27.223Z,101024.78
2022-08-05T17:58:01.947Z,101027.50
2022-08-05T18:00:29.444Z,101033.38
2022-08-05T18:02:56.319Z,101038.44
2022-08-05T18:05:23.666Z,101045.78
2022-08-05T18:07:54.461Z,101044.69
2022-08-05T18:10:23.327Z,101042.78
2022-08-05T18:12:49.939Z,101050.63
2022-08-05T18:15:16.671Z,101057.47
2022-08-05T18:18:00.903Z,101051.97
2022-08-05T18:20:31.852Z,101047.44
2022-08-05T18:23:09.320Z,101049.91
2022-08-05T18:25:39.508Z,101045.97
2022-08-05T18:28:11.364Z,101052.72
2022-08-05T18:30:39.180Z,101066.34
2022-08-05T18:33:07.360Z,101059.41
2022-08-05T18:36:00.527Z,101070.09
2022-08-05T18:38:25.998Z,101070.09
2022-08-05T18:41:57.092Z,101075.47
2022-08-05T18:43:42.768Z,101078.56
2022-08-05T18:46:14.837Z,101087.56
2022-08-05T18:48:41.610Z,101088.38
2022-08-05T18:52:03.887Z,101086.16
2022-08-05T18:54:14.744Z,101099.97
2022-08-05T18:56:41.869Z,101086.34
2022-08-05T18:59:43.308Z,101102.47
2022-08-05T19:02:04.613Z,101106.75
2022-08-05T19:04:38.107Z,101114.63
2022-08-05T19:07:24.645Z,101124.91
2022-08-05T19:09:56.599Z,101127.88
2022-08-05T19:12:23.389Z,101130.22
2022-08-05T19:15:00.312Z,101137.56
2022-08-05T19:17:59.371Z,101141.22
2022-08-05T19:20:15.610Z,101146.41
2022-08-05T19:22:44.222Z,101151.09
2022-08-05T19:25:10.817Z,101155.03
2022-08-05T19:27:48.761Z,101160.78
2022-08-05T19:30:20.489Z,101164.38
2022-08-05T19:32:47.260Z,101173.47
2022-08-05T19:35:14.373Z,101177.03
2022-08-05T19:38:04.660Z,101187.00
2022-08-05T19:40:28.591Z,101186.38
2022-08-05T19:43:04.658Z,101195.97
2022-08-05T19:45:36.367Z,101210.88
2022-08-05T19:48:03.444Z,101196.66
2022-08-05T19:50:31.850Z,101204.59
2022-08-05T19:52:58.534Z,101216.16
2022-08-05T19:56:15.228Z,101218.97
2022-08-05T19:58:29.164Z,101218.97
2022-08-05T20:00:56.384Z,101221.41
2022-08-05T20:03:26.140Z,101238.59
2022-08-05T20:05:56.448Z,101234.19
2022-08-05T20:08:24.609Z,101239.47
2022-08-05T20:10:52.264Z,101251.34
2022-08-05T20:13:30.042Z,101243.41
2022-08-05T20:16:05.669Z,101248.25
2022-08-05T20:18:33.253Z,101252.63
2022-08-05T20:21:04.592Z,101267.13
2022-08-05T20:23:40.450Z,101263.56
2022-08-05T20:26:20.398Z,101262.56
2022-08-05T20:28:50.369Z,101271.09
2022-08-05T20:31:21.676Z,101279.47
2022-08-05T20:33:50.038Z,101286.84
2022-08-05T20:36:18.094Z,101285.50
2022-08-05T20:38:54.242Z,101288.63
2022-08-05T20:41:27.524Z,101294.56
2022-08-05T20:44:17.804Z,101305.09
2022-08-05T20:46:57.978Z,101297.25
2022-08-05T20:49:25.980Z,101303.19
2022-08-05T20:51:54.017Z,101308.75
2022-08-05T20:54:20.990Z,101304.50
2022-08-05T20:56:47.467Z,101311.03
2022-08-05T20:59:26.665Z,101315.75
2022-08-05T21:01:57.247Z,101313.22
2022-08-05T21:04:26.906Z,101311.88
2022-08-05T21:06:54.153Z,101316.16
2022-08-05T21:09:21.758Z,101324.28
2022-08-05T21:12:09.147Z,101319.81
2022-08-05T21:14:35.521Z,101329.44
2022-08-05T21:17:05.963Z,101336.47
2022-08-05T21:19:47.422Z,101332.25
2022-08-05T21:22:18.333Z,101338.28
2022-08-05T21:24:45.754Z,101334.50
2022-08-05T21:27:16.008Z,101336.97
2022-08-05T21:29:43.252Z,101341.50
2022-08-05T21:32:19.880Z,101344.06
2022-08-05T21:35:08.496Z,101343.28
2022-08-05T21:37:33.405Z,101343.81
2022-08-05T21:40:05.810Z,101351.28
2022-08-05T21:42:43.700Z,101350.97
2022-08-05T21:45:11.654Z,101354.53
2022-08-05T21:47:55.717Z,101352.78
2022-08-05T21:50:24.080Z,101360.09
2022-08-05T21:52:50.564Z,101371.03
2022-08-05T21:55:42.683Z,101370.47
2022-08-05T21:58:05.439Z,101373.00
2022-08-05T22:00:32.185Z,101365.78
2022-08-05T22:02:59.708Z,101370.72
2022-08-05T22:05:27.419Z,101363.97
2022-08-05T22:07:58.667Z,101367.47
2022-08-05T22:10:26.888Z,101379.72
2022-08-05T22:12:57.515Z,101374.31
2022-08-05T22:16:02.492Z,101378.94
2022-08-05T22:18:12.667Z,101383.34
2022-08-05T22:20:41.182Z,101388.50
2022-08-05T22:24:02.299Z,101389.56
2022-08-05T22:26:31.483Z,101393.63
2022-08-05T22:29:00.285Z,101400.25
2022-08-05T22:31:30.254Z,101396.94
2022-08-05T22:34:01.517Z,101391.53
2022-08-05T22:36:29.161Z,101397.19
2022-08-05T22:38:56.313Z,101399.09
2022-08-05T22:42:04.932Z,101396.44
2022-08-05T22:44:12.071Z,101391.94
2022-08-05T22:46:40.695Z,101397.91
2022-08-05T22:49:23.058Z,101401.31
2022-08-05T22:52:05.805Z,101405.72
2022-08-05T22:54:35.264Z,101406.59
2022-08-05T22:57:02.850Z,101406.44
2022-08-05T22:59:48.559Z,101407.41
2022-08-05T23:02:29.476Z,101411.19
2022-08-05T23:04:56.951Z,101419.25
2022-08-05T23:07:23.423Z,101419.16
2022-08-05T23:09:57.166Z,101425.06
2022-08-05T23:12:32.431Z,101425.22
2022-08-05T23:15:03.948Z,101434.63
2022-08-05T23:17:37.433Z,101433.50
2022-08-05T23:20:24.402Z,101437.41
2022-08-05T23:22:54.166Z,101430.38
2022-08-05T23:25:52.911Z,101439.81
2022-08-05T23:28:10.795Z,101433.81
2022-08-05T23:30:40.153Z,101436.50
2022-08-05T23:33:16.477Z,101437.72
2022-08-05T23:35:50.045Z,101438.31
2022-08-05T23:38:16.974Z,101444.09
2022-08-05T23:40:50.058Z,101456.44
2022-08-05T23:43:25.536Z,101449.69
2022-08-05T23:46:21.149Z,101450.97
2022-08-05T23:49:00.412Z,101457.06
2022-08-05T23:51:53.697Z,101459.19
2022-08-05T23:54:31.728Z,101470.38
2022-08-05T23:57:04.634Z,101460.25
